sensor_id;sensor_type;location;lat;lon;timestamp;P1;durP1;ratioP1;P2;durP2;ratioP2
23310;SDS011;11828;51.508;18.118;2022-12-11T00:00:45;36.63;;;16.45;;
23310;SDS011;11828;51.508;18.118;2022-12-11T00:03:32;34.15;;;16.70;;
23310;SDS011;11828;51.508;18.118;2022-12-11T00:05:57;38.33;;;17.42;;
23310;SDS011;11828;51.508;18.118;2022-12-11T00:08:24;36.08;;;17.00;;
23310;SDS011;11828;51.508;18.118;2022-12-11T00:10:50;36.30;;;17.33;;
23310;SDS011;11828;51.508;18.118;2022-12-11T00:13:16;36.75;;;16.98;;
23310;SDS011;11828;51.508;18.118;2022-12-11T00:15:42;37.67;;;17.17;;
23310;SDS011;11828;51.508;18.118;2022-12-11T00:18:11;34.95;;;16.23;;
23310;SDS011;11828;51.508;18.118;2022-12-11T00:20:38;34.65;;;15.80;;
23310;SDS011;11828;51.508;18.118;2022-12-11T00:23:04;33.85;;;15.52;;
23310;SDS011;11828;51.508;18.118;2022-12-11T00:25:30;33.65;;;15.82;;
23310;SDS011;11828;51.508;18.118;2022-12-11T00:27:57;35.33;;;15.73;;
23310;SDS011;11828;51.508;18.118;2022-12-11T00:30:23;37.28;;;16.63;;
23310;SDS011;11828;51.508;18.118;2022-12-11T00:32:52;32.10;;;14.88;;
23310;SDS011;11828;51.508;18.118;2022-12-11T00:35:18;36.15;;;16.10;;
23310;SDS011;11828;51.508;18.118;2022-12-11T00:37:44;34.63;;;16.40;;
23310;SDS011;11828;51.508;18.118;2022-12-11T00:40:10;33.63;;;15.80;;
23310;SDS011;11828;51.508;18.118;2022-12-11T00:42:37;32.28;;;15.43;;
23310;SDS011;11828;51.508;18.118;2022-12-11T00:45:03;34.45;;;15.35;;
23310;SDS011;11828;51.508;18.118;2022-12-11T00:47:29;33.90;;;15.05;;
23310;SDS011;11828;51.508;18.118;2022-12-11T00:49:55;33.00;;;14.80;;
23310;SDS011;11828;51.508;18.118;2022-12-11T00:52:21;36.55;;;16.08;;
23310;SDS011;11828;51.508;18.118;2022-12-11T00:54:47;30.48;;;14.75;;
23310;SDS011;11828;51.508;18.118;2022-12-11T00:57:13;30.83;;;14.50;;
23310;SDS011;11828;51.508;18.118;2022-12-11T00:59:39;32.78;;;15.55;;
23310;SDS011;11828;51.508;18.118;2022-12-11T01:02:06;36.58;;;16.42;;
23310;SDS011;11828;51.508;18.118;2022-12-11T01:04:33;34.55;;;15.75;;
23310;SDS011;11828;51.508;18.118;2022-12-11T01:07:01;35.53;;;15.80;;
23310;SDS011;11828;51.508;18.118;2022-12-11T01:09:27;32.60;;;14.88;;
23310;SDS011;11828;51.508;18.118;2022-12-11T01:12:12;33.22;;;16.23;;
23310;SDS011;11828;51.508;18.118;2022-12-11T01:14:38;31.33;;;14.90;;
23310;SDS011;11828;51.508;18.118;2022-12-11T01:17:04;35.47;;;15.48;;
23310;SDS011;11828;51.508;18.118;2022-12-11T01:19:30;33.58;;;16.63;;
23310;SDS011;11828;51.508;18.118;2022-12-11T01:21:56;34.50;;;16.17;;
23310;SDS011;11828;51.508;18.118;2022-12-11T01:24:22;34.58;;;15.93;;
23310;SDS011;11828;51.508;18.118;2022-12-11T01:26:48;30.80;;;14.98;;
23310;SDS011;11828;51.508;18.118;2022-12-11T01:29:14;34.95;;;16.90;;
23310;SDS011;11828;51.508;18.118;2022-12-11T01:31:41;35.50;;;17.65;;
23310;SDS011;11828;51.508;18.118;2022-12-11T01:34:07;38.38;;;17.67;;
23310;SDS011;11828;51.508;18.118;2022-12-11T01:36:33;34.45;;;17.48;;
23310;SDS011;11828;51.508;18.118;2022-12-11T01:38:59;37.80;;;17.75;;
23310;SDS011;11828;51.508;18.118;2022-12-11T01:41:25;37.75;;;17.92;;
23310;SDS011;11828;51.508;18.118;2022-12-11T01:43:58;35.17;;;16.92;;
23310;SDS011;11828;51.508;18.118;2022-12-11T01:46:27;37.00;;;16.98;;
23310;SDS011;11828;51.508;18.118;2022-12-11T01:48:54;34.10;;;16.77;;
23310;SDS011;11828;51.508;18.118;2022-12-11T01:51:21;37.05;;;16.85;;
23310;SDS011;11828;51.508;18.118;2022-12-11T01:53:50;35.92;;;17.10;;
23310;SDS011;11828;51.508;18.118;2022-12-11T01:56:23;33.35;;;16.58;;
23310;SDS011;11828;51.508;18.118;2022-12-11T01:58:51;32.42;;;15.75;;
23310;SDS011;11828;51.508;18.118;2022-12-11T02:01:23;29.70;;;15.23;;
23310;SDS011;11828;51.508;18.118;2022-12-11T02:03:59;33.17;;;15.43;;
23310;SDS011;11828;51.508;18.118;2022-12-11T02:06:28;35.75;;;16.83;;
23310;SDS011;11828;51.508;18.118;2022-12-11T02:09:08;34.08;;;16.42;;
23310;SDS011;11828;51.508;18.118;2022-12-11T02:14:36;35.05;;;16.30;;
23310;SDS011;11828;51.508;18.118;2022-12-11T02:20:47;37.33;;;16.65;;
23310;SDS011;11828;51.508;18.118;2022-12-11T02:26:53;33.38;;;15.70;;
23310;SDS011;11828;51.508;18.118;2022-12-11T02:32:26;32.00;;;15.13;;
23310;SDS011;11828;51.508;18.118;2022-12-11T02:35:06;33.50;;;16.05;;
23310;SDS011;11828;51.508;18.118;2022-12-11T02:37:56;33.75;;;16.23;;
23310;SDS011;11828;51.508;18.118;2022-12-11T02:40:38;33.63;;;15.45;;
23310;SDS011;11828;51.508;18.118;2022-12-11T02:43:07;32.92;;;15.32;;
23310;SDS011;11828;51.508;18.118;2022-12-11T02:45:38;31.70;;;15.77;;
23310;SDS011;11828;51.508;18.118;2022-12-11T02:48:06;34.28;;;15.93;;
23310;SDS011;11828;51.508;18.118;2022-12-11T02:50:36;32.45;;;15.40;;
23310;SDS011;11828;51.508;18.118;2022-12-11T02:53:08;30.40;;;14.43;;
23310;SDS011;11828;51.508;18.118;2022-12-11T02:55:38;34.70;;;16.33;;
23310;SDS011;11828;51.508;18.118;2022-12-11T02:58:08;33.42;;;15.20;;
23310;SDS011;11828;51.508;18.118;2022-12-11T03:00:48;34.20;;;15.90;;
23310;SDS011;11828;51.508;18.118;2022-12-11T03:03:15;33.90;;;15.50;;
23310;SDS011;11828;51.508;18.118;2022-12-11T03:05:41;34.00;;;15.90;;
23310;SDS011;11828;51.508;18.118;2022-12-11T03:08:08;36.97;;;16.20;;
23310;SDS011;11828;51.508;18.118;2022-12-11T03:10:34;33.13;;;15.65;;
23310;SDS011;11828;51.508;18.118;2022-12-11T03:13:00;37.78;;;16.25;;
23310;SDS011;11828;51.508;18.118;2022-12-11T03:15:31;30.20;;;15.50;;
23310;SDS011;11828;51.508;18.118;2022-12-11T03:22:02;35.45;;;14.98;;
23310;SDS011;11828;51.508;18.118;2022-12-11T03:24:19;32.80;;;14.90;;
23310;SDS011;11828;51.508;18.118;2022-12-11T03:27:21;34.30;;;16.63;;
23310;SDS011;11828;51.508;18.118;2022-12-11T03:30:07;29.90;;;15.45;;
23310;SDS011;11828;51.508;18.118;2022-12-11T03:32:46;33.17;;;16.55;;
23310;SDS011;11828;51.508;18.118;2022-12-11T03:35:32;36.55;;;16.58;;
23310;SDS011;11828;51.508;18.118;2022-12-11T03:38:22;39.25;;;17.60;;
23310;SDS011;11828;51.508;18.118;2022-12-11T03:40:58;36.20;;;17.52;;
23310;SDS011;11828;51.508;18.118;2022-12-11T03:43:27;39.55;;;17.17;;
23310;SDS011;11828;51.508;18.118;2022-12-11T03:45:54;39.20;;;17.67;;
23310;SDS011;11828;51.508;18.118;2022-12-11T03:48:21;37.80;;;17.42;;
23310;SDS011;11828;51.508;18.118;2022-12-11T03:50:54;33.70;;;15.75;;
23310;SDS011;11828;51.508;18.118;2022-12-11T03:53:21;39.03;;;17.33;;
23310;SDS011;11828;51.508;18.118;2022-12-11T03:55:50;35.00;;;15.77;;
23310;SDS011;11828;51.508;18.118;2022-12-11T03:58:16;34.40;;;15.00;;
23310;SDS011;11828;51.508;18.118;2022-12-11T04:00:42;32.00;;;15.00;;
23310;SDS011;11828;51.508;18.118;2022-12-11T04:03:09;35.67;;;16.05;;
23310;SDS011;11828;51.508;18.118;2022-12-11T04:05:42;33.95;;;15.48;;
23310;SDS011;11828;51.508;18.118;2022-12-11T04:08:18;33.63;;;15.05;;
23310;SDS011;11828;51.508;18.118;2022-12-11T04:10:45;32.70;;;15.85;;
23310;SDS011;11828;51.508;18.118;2022-12-11T04:13:12;35.00;;;15.30;;
23310;SDS011;11828;51.508;18.118;2022-12-11T04:15:38;32.95;;;15.05;;
23310;SDS011;11828;51.508;18.118;2022-12-11T04:18:05;33.00;;;15.65;;
23310;SDS011;11828;51.508;18.118;2022-12-11T04:20:54;35.22;;;15.95;;
23310;SDS011;11828;51.508;18.118;2022-12-11T04:23:39;32.67;;;15.73;;
23310;SDS011;11828;51.508;18.118;2022-12-11T04:26:24;34.60;;;16.08;;
23310;SDS011;11828;51.508;18.118;2022-12-11T04:28:50;35.85;;;16.75;;
23310;SDS011;11828;51.508;18.118;2022-12-11T04:31:17;35.13;;;16.55;;
23310;SDS011;11828;51.508;18.118;2022-12-11T04:33:46;35.13;;;16.20;;
23310;SDS011;11828;51.508;18.118;2022-12-11T04:36:13;35.17;;;16.60;;
23310;SDS011;11828;51.508;18.118;2022-12-11T04:38:39;33.75;;;15.75;;
23310;SDS011;11828;51.508;18.118;2022-12-11T04:41:10;34.25;;;16.58;;
23310;SDS011;11828;51.508;18.118;2022-12-11T04:43:38;35.58;;;16.05;;
23310;SDS011;11828;51.508;18.118;2022-12-11T04:48:37;30.42;;;14.98;;
23310;SDS011;11828;51.508;18.118;2022-12-11T04:51:04;32.70;;;16.42;;
23310;SDS011;11828;51.508;18.118;2022-12-11T04:53:31;30.40;;;15.00;;
23310;SDS011;11828;51.508;18.118;2022-12-11T04:55:57;34.08;;;15.52;;
23310;SDS011;11828;51.508;18.118;2022-12-11T04:58:24;32.22;;;15.88;;
23310;SDS011;11828;51.508;18.118;2022-12-11T05:00:50;29.33;;;15.27;;
23310;SDS011;11828;51.508;18.118;2022-12-11T05:03:17;35.03;;;15.95;;
23310;SDS011;11828;51.508;18.118;2022-12-11T05:05:48;36.35;;;16.60;;
23310;SDS011;11828;51.508;18.118;2022-12-11T05:08:18;31.50;;;15.35;;
23310;SDS011;11828;51.508;18.118;2022-12-11T05:11:06;33.42;;;16.20;;
23310;SDS011;11828;51.508;18.118;2022-12-11T05:13:36;33.72;;;16.48;;
23310;SDS011;11828;51.508;18.118;2022-12-11T05:16:03;39.75;;;17.58;;
23310;SDS011;11828;51.508;18.118;2022-12-11T05:18:31;31.90;;;15.68;;
23310;SDS011;11828;51.508;18.118;2022-12-11T05:20:58;36.40;;;17.27;;
23310;SDS011;11828;51.508;18.118;2022-12-11T05:23:27;35.67;;;16.23;;
23310;SDS011;11828;51.508;18.118;2022-12-11T05:25:57;37.50;;;17.15;;
23310;SDS011;11828;51.508;18.118;2022-12-11T05:28:28;34.80;;;17.90;;
23310;SDS011;11828;51.508;18.118;2022-12-11T05:31:00;35.30;;;17.63;;
23310;SDS011;11828;51.508;18.118;2022-12-11T05:33:30;33.40;;;16.45;;
23310;SDS011;11828;51.508;18.118;2022-12-11T05:35:56;33.08;;;16.48;;
23310;SDS011;11828;51.508;18.118;2022-12-11T05:38:23;31.20;;;16.25;;
23310;SDS011;11828;51.508;18.118;2022-12-11T05:41:22;28.95;;;14.05;;
23310;SDS011;11828;51.508;18.118;2022-12-11T05:43:43;28.75;;;13.43;;
23310;SDS011;11828;51.508;18.118;2022-12-11T05:46:11;27.73;;;13.27;;
23310;SDS011;11828;51.508;18.118;2022-12-11T05:48:44;29.08;;;13.23;;
23310;SDS011;11828;51.508;18.118;2022-12-11T05:51:14;23.90;;;12.45;;
23310;SDS011;11828;51.508;18.118;2022-12-11T05:53:41;27.20;;;13.10;;
23310;SDS011;11828;51.508;18.118;2022-12-11T05:56:10;23.52;;;12.07;;
23310;SDS011;11828;51.508;18.118;2022-12-11T05:58:40;25.92;;;12.80;;
23310;SDS011;11828;51.508;18.118;2022-12-11T06:01:08;26.08;;;13.02;;
23310;SDS011;11828;51.508;18.118;2022-12-11T06:03:45;27.85;;;13.40;;
23310;SDS011;11828;51.508;18.118;2022-12-11T06:06:12;26.85;;;13.57;;
23310;SDS011;11828;51.508;18.118;2022-12-11T06:08:39;26.33;;;12.95;;
23310;SDS011;11828;51.508;18.118;2022-12-11T06:11:05;28.90;;;13.85;;
23310;SDS011;11828;51.508;18.118;2022-12-11T06:13:31;27.13;;;13.55;;
23310;SDS011;11828;51.508;18.118;2022-12-11T06:16:01;26.38;;;12.77;;
23310;SDS011;11828;51.508;18.118;2022-12-11T06:18:30;27.45;;;13.50;;
23310;SDS011;11828;51.508;18.118;2022-12-11T06:20:56;28.55;;;13.60;;
23310;SDS011;11828;51.508;18.118;2022-12-11T06:23:22;27.10;;;13.68;;
23310;SDS011;11828;51.508;18.118;2022-12-11T06:25:48;26.63;;;13.10;;
23310;SDS011;11828;51.508;18.118;2022-12-11T06:28:14;28.02;;;14.23;;
23310;SDS011;11828;51.508;18.118;2022-12-11T06:30:41;28.55;;;14.02;;
23310;SDS011;11828;51.508;18.118;2022-12-11T06:33:09;26.88;;;14.25;;
23310;SDS011;11828;51.508;18.118;2022-12-11T06:35:35;26.17;;;13.43;;
23310;SDS011;11828;51.508;18.118;2022-12-11T06:38:01;28.25;;;13.60;;
23310;SDS011;11828;51.508;18.118;2022-12-11T06:40:27;29.48;;;13.80;;
23310;SDS011;11828;51.508;18.118;2022-12-11T06:42:54;29.25;;;14.15;;
23310;SDS011;11828;51.508;18.118;2022-12-11T06:45:20;27.65;;;13.77;;
23310;SDS011;11828;51.508;18.118;2022-12-11T06:47:46;29.52;;;13.27;;
23310;SDS011;11828;51.508;18.118;2022-12-11T06:50:12;27.00;;;13.43;;
23310;SDS011;11828;51.508;18.118;2022-12-11T06:52:38;29.48;;;13.80;;
23310;SDS011;11828;51.508;18.118;2022-12-11T06:55:04;26.60;;;13.25;;
23310;SDS011;11828;51.508;18.118;2022-12-11T06:57:31;26.77;;;13.07;;
23310;SDS011;11828;51.508;18.118;2022-12-11T06:59:58;27.08;;;13.93;;
23310;SDS011;11828;51.508;18.118;2022-12-11T07:02:25;30.05;;;14.57;;
23310;SDS011;11828;51.508;18.118;2022-12-11T07:04:51;28.48;;;14.38;;
23310;SDS011;11828;51.508;18.118;2022-12-11T07:07:17;28.60;;;13.73;;
23310;SDS011;11828;51.508;18.118;2022-12-11T07:09:44;24.80;;;12.85;;
23310;SDS011;11828;51.508;18.118;2022-12-11T07:12:10;29.63;;;13.45;;
23310;SDS011;11828;51.508;18.118;2022-12-11T07:14:36;28.20;;;14.00;;
23310;SDS011;11828;51.508;18.118;2022-12-11T07:17:02;28.23;;;13.65;;
23310;SDS011;11828;51.508;18.118;2022-12-11T07:19:28;29.33;;;13.60;;
23310;SDS011;11828;51.508;18.118;2022-12-11T07:21:54;28.85;;;14.25;;
23310;SDS011;11828;51.508;18.118;2022-12-11T07:24:20;34.33;;;15.68;;
23310;SDS011;11828;51.508;18.118;2022-12-11T07:26:46;31.55;;;16.08;;
23310;SDS011;11828;51.508;18.118;2022-12-11T07:29:12;31.45;;;15.63;;
23310;SDS011;11828;51.508;18.118;2022-12-11T07:31:39;35.58;;;16.13;;
23310;SDS011;11828;51.508;18.118;2022-12-11T07:34:05;31.90;;;15.75;;
23310;SDS011;11828;51.508;18.118;2022-12-11T07:36:32;29.92;;;15.00;;
23310;SDS011;11828;51.508;18.118;2022-12-11T07:38:59;29.65;;;14.50;;
23310;SDS011;11828;51.508;18.118;2022-12-11T07:41:25;29.27;;;14.18;;
23310;SDS011;11828;51.508;18.118;2022-12-11T07:43:56;28.15;;;13.95;;
23310;SDS011;11828;51.508;18.118;2022-12-11T07:46:26;24.30;;;12.43;;
23310;SDS011;11828;51.508;18.118;2022-12-11T07:48:54;25.23;;;12.68;;
23310;SDS011;11828;51.508;18.118;2022-12-11T07:51:21;28.58;;;13.93;;
23310;SDS011;11828;51.508;18.118;2022-12-11T07:53:56;26.90;;;13.80;;
23310;SDS011;11828;51.508;18.118;2022-12-11T07:56:27;28.65;;;13.73;;
23310;SDS011;11828;51.508;18.118;2022-12-11T07:58:54;32.38;;;15.30;;
23310;SDS011;11828;51.508;18.118;2022-12-11T08:01:22;27.65;;;13.80;;
23310;SDS011;11828;51.508;18.118;2022-12-11T08:03:53;26.52;;;13.93;;
23310;SDS011;11828;51.508;18.118;2022-12-11T08:06:24;30.52;;;14.00;;
23310;SDS011;11828;51.508;18.118;2022-12-11T08:08:56;29.27;;;14.75;;
23310;SDS011;11828;51.508;18.118;2022-12-11T08:11:24;32.15;;;15.52;;
23310;SDS011;11828;51.508;18.118;2022-12-11T08:13:50;31.20;;;15.15;;
23310;SDS011;11828;51.508;18.118;2022-12-11T08:16:17;33.17;;;15.48;;
23310;SDS011;11828;51.508;18.118;2022-12-11T08:18:44;31.40;;;15.32;;
23310;SDS011;11828;51.508;18.118;2022-12-11T08:21:19;28.30;;;15.00;;
23310;SDS011;11828;51.508;18.118;2022-12-11T08:23:48;29.35;;;14.07;;
23310;SDS011;11828;51.508;18.118;2022-12-11T08:26:17;32.95;;;14.88;;
23310;SDS011;11828;51.508;18.118;2022-12-11T08:28:49;30.88;;;14.82;;
23310;SDS011;11828;51.508;18.118;2022-12-11T08:31:16;29.17;;;14.73;;
23310;SDS011;11828;51.508;18.118;2022-12-11T08:33:43;34.80;;;15.52;;
23310;SDS011;11828;51.508;18.118;2022-12-11T08:36:12;32.67;;;15.23;;
23310;SDS011;11828;51.508;18.118;2022-12-11T08:38:41;33.55;;;15.25;;
23310;SDS011;11828;51.508;18.118;2022-12-11T08:41:08;29.08;;;13.57;;
23310;SDS011;11828;51.508;18.118;2022-12-11T08:43:40;28.75;;;14.30;;
23310;SDS011;11828;51.508;18.118;2022-12-11T08:46:07;27.35;;;13.48;;
23310;SDS011;11828;51.508;18.118;2022-12-11T08:48:35;26.67;;;13.07;;
23310;SDS011;11828;51.508;18.118;2022-12-11T08:51:04;28.08;;;13.60;;
23310;SDS011;11828;51.508;18.118;2022-12-11T08:53:32;28.23;;;13.15;;
23310;SDS011;11828;51.508;18.118;2022-12-11T08:56:03;27.15;;;13.23;;
23310;SDS011;11828;51.508;18.118;2022-12-11T08:58:32;28.85;;;13.30;;
23310;SDS011;11828;51.508;18.118;2022-12-11T09:00:59;28.92;;;13.93;;
23310;SDS011;11828;51.508;18.118;2022-12-11T09:03:25;25.00;;;13.15;;
23310;SDS011;11828;51.508;18.118;2022-12-11T09:05:51;23.25;;;12.68;;
23310;SDS011;11828;51.508;18.118;2022-12-11T09:08:17;26.73;;;13.07;;
23310;SDS011;11828;51.508;18.118;2022-12-11T09:10:43;26.05;;;13.25;;
23310;SDS011;11828;51.508;18.118;2022-12-11T09:13:09;25.73;;;12.65;;
23310;SDS011;11828;51.508;18.118;2022-12-11T09:15:38;26.98;;;13.80;;
23310;SDS011;11828;51.508;18.118;2022-12-11T09:18:05;20.45;;;11.88;;
23310;SDS011;11828;51.508;18.118;2022-12-11T09:20:32;23.92;;;13.23;;
23310;SDS011;11828;51.508;18.118;2022-12-11T09:22:58;24.35;;;12.98;;
23310;SDS011;11828;51.508;18.118;2022-12-11T09:25:25;22.30;;;12.35;;
23310;SDS011;11828;51.508;18.118;2022-12-11T09:27:51;24.08;;;13.13;;
23310;SDS011;11828;51.508;18.118;2022-12-11T09:30:18;23.08;;;11.80;;
23310;SDS011;11828;51.508;18.118;2022-12-11T09:32:44;26.23;;;13.25;;
23310;SDS011;11828;51.508;18.118;2022-12-11T09:35:10;24.02;;;12.90;;
23310;SDS011;11828;51.508;18.118;2022-12-11T09:37:36;22.50;;;12.63;;
23310;SDS011;11828;51.508;18.118;2022-12-11T09:40:02;22.48;;;11.70;;
23310;SDS011;11828;51.508;18.118;2022-12-11T09:45:09;21.40;;;11.57;;
23310;SDS011;11828;51.508;18.118;2022-12-11T09:52:39;22.83;;;12.20;;
23310;SDS011;11828;51.508;18.118;2022-12-11T09:55:34;20.48;;;10.70;;
23310;SDS011;11828;51.508;18.118;2022-12-11T10:01:11;21.15;;;11.70;;
23310;SDS011;11828;51.508;18.118;2022-12-11T10:09:25;20.05;;;11.52;;
23310;SDS011;11828;51.508;18.118;2022-12-11T10:17:45;21.40;;;11.90;;
23310;SDS011;11828;51.508;18.118;2022-12-11T10:20:29;28.80;;;13.57;;
23310;SDS011;11828;51.508;18.118;2022-12-11T10:23:01;20.00;;;11.05;;
23310;SDS011;11828;51.508;18.118;2022-12-11T10:25:31;21.63;;;11.68;;
23310;SDS011;11828;51.508;18.118;2022-12-11T10:28:09;26.25;;;13.77;;
23310;SDS011;11828;51.508;18.118;2022-12-11T10:30:54;23.30;;;12.50;;
23310;SDS011;11828;51.508;18.118;2022-12-11T10:36:28;23.00;;;12.93;;
23310;SDS011;11828;51.508;18.118;2022-12-11T10:38:59;26.85;;;13.50;;
23310;SDS011;11828;51.508;18.118;2022-12-11T10:41:36;27.75;;;13.98;;
23310;SDS011;11828;51.508;18.118;2022-12-11T10:44:13;22.08;;;12.60;;
23310;SDS011;11828;51.508;18.118;2022-12-11T10:46:42;23.63;;;12.52;;
23310;SDS011;11828;51.508;18.118;2022-12-11T10:49:24;22.77;;;12.68;;
23310;SDS011;11828;51.508;18.118;2022-12-11T10:51:53;22.45;;;12.32;;
23310;SDS011;11828;51.508;18.118;2022-12-11T10:54:34;26.75;;;13.90;;
23310;SDS011;11828;51.508;18.118;2022-12-11T10:57:13;24.90;;;13.10;;
23310;SDS011;11828;51.508;18.118;2022-12-11T10:59:46;24.10;;;13.73;;
23310;SDS011;11828;51.508;18.118;2022-12-11T11:02:35;27.70;;;13.88;;
23310;SDS011;11828;51.508;18.118;2022-12-11T11:05:12;27.77;;;14.27;;
23310;SDS011;11828;51.508;18.118;2022-12-11T11:07:42;31.70;;;15.18;;
23310;SDS011;11828;51.508;18.118;2022-12-11T11:12:41;26.40;;;13.63;;
23310;SDS011;11828;51.508;18.118;2022-12-11T11:15:13;25.23;;;14.10;;
23310;SDS011;11828;51.508;18.118;2022-12-11T11:17:53;27.35;;;14.63;;
23310;SDS011;11828;51.508;18.118;2022-12-11T11:20:22;27.33;;;14.05;;
23310;SDS011;11828;51.508;18.118;2022-12-11T11:22:59;28.42;;;13.80;;
23310;SDS011;11828;51.508;18.118;2022-12-11T11:25:30;24.67;;;13.20;;
23310;SDS011;11828;51.508;18.118;2022-12-11T11:27:59;28.95;;;14.57;;
23310;SDS011;11828;51.508;18.118;2022-12-11T11:30:29;27.02;;;14.00;;
23310;SDS011;11828;51.508;18.118;2022-12-11T11:33:17;27.38;;;14.50;;
23310;SDS011;11828;51.508;18.118;2022-12-11T11:35:55;28.08;;;14.98;;
23310;SDS011;11828;51.508;18.118;2022-12-11T11:44:01;29.00;;;15.13;;
23310;SDS011;11828;51.508;18.118;2022-12-11T11:46:37;30.20;;;15.70;;
23310;SDS011;11828;51.508;18.118;2022-12-11T11:49:16;31.90;;;15.65;;
23310;SDS011;11828;51.508;18.118;2022-12-11T11:52:11;30.13;;;16.27;;
23310;SDS011;11828;51.508;18.118;2022-12-11T12:00:47;35.65;;;18.73;;
23310;SDS011;11828;51.508;18.118;2022-12-11T12:03:15;40.72;;;21.25;;
23310;SDS011;11828;51.508;18.118;2022-12-11T12:06:17;39.05;;;19.85;;
23310;SDS011;11828;51.508;18.118;2022-12-11T12:14:32;48.78;;;22.55;;
23310;SDS011;11828;51.508;18.118;2022-12-11T12:26:16;46.67;;;22.05;;
23310;SDS011;11828;51.508;18.118;2022-12-11T12:31:52;38.33;;;18.17;;
23310;SDS011;11828;51.508;18.118;2022-12-11T12:48:25;35.47;;;16.73;;
23310;SDS011;11828;51.508;18.118;2022-12-11T12:50:52;32.55;;;16.15;;
23310;SDS011;11828;51.508;18.118;2022-12-11T12:53:24;34.13;;;16.52;;
23310;SDS011;11828;51.508;18.118;2022-12-11T12:55:53;39.15;;;18.58;;
23310;SDS011;11828;51.508;18.118;2022-12-11T13:01:17;67.78;;;32.20;;
23310;SDS011;11828;51.508;18.118;2022-12-11T13:06:28;45.40;;;20.73;;
23310;SDS011;11828;51.508;18.118;2022-12-11T13:09:07;35.90;;;18.40;;
23310;SDS011;11828;51.508;18.118;2022-12-11T13:11:46;40.53;;;19.30;;
23310;SDS011;11828;51.508;18.118;2022-12-11T13:16:51;39.83;;;18.67;;
23310;SDS011;11828;51.508;18.118;2022-12-11T13:19:33;33.67;;;17.77;;
23310;SDS011;11828;51.508;18.118;2022-12-11T13:32:40;37.38;;;17.30;;
23310;SDS011;11828;51.508;18.118;2022-12-11T13:35:15;36.65;;;18.67;;
23310;SDS011;11828;51.508;18.118;2022-12-11T13:37:43;36.72;;;18.58;;
23310;SDS011;11828;51.508;18.118;2022-12-11T13:40:16;34.22;;;17.65;;
23310;SDS011;11828;51.508;18.118;2022-12-11T13:42:48;34.50;;;18.13;;
23310;SDS011;11828;51.508;18.118;2022-12-11T13:45:20;35.17;;;17.35;;
23310;SDS011;11828;51.508;18.118;2022-12-11T13:47:53;35.95;;;18.05;;
23310;SDS011;11828;51.508;18.118;2022-12-11T13:50:28;36.67;;;18.60;;
23310;SDS011;11828;51.508;18.118;2022-12-11T13:52:58;37.33;;;18.08;;
23310;SDS011;11828;51.508;18.118;2022-12-11T13:55:30;37.45;;;18.13;;
23310;SDS011;11828;51.508;18.118;2022-12-11T13:57:58;43.97;;;19.55;;
23310;SDS011;11828;51.508;18.118;2022-12-11T14:00:26;41.58;;;20.25;;
23310;SDS011;11828;51.508;18.118;2022-12-11T14:02:57;38.33;;;19.17;;
23310;SDS011;11828;51.508;18.118;2022-12-11T14:05:32;38.28;;;20.10;;
23310;SDS011;11828;51.508;18.118;2022-12-11T14:08:01;40.33;;;19.85;;
23310;SDS011;11828;51.508;18.118;2022-12-11T14:10:34;40.00;;;19.27;;
23310;SDS011;11828;51.508;18.118;2022-12-11T14:13:02;39.55;;;19.83;;
23310;SDS011;11828;51.508;18.118;2022-12-11T14:15:48;38.17;;;19.33;;
23310;SDS011;11828;51.508;18.118;2022-12-11T14:18:16;39.08;;;19.60;;
23310;SDS011;11828;51.508;18.118;2022-12-11T14:20:55;44.55;;;21.15;;
23310;SDS011;11828;51.508;18.118;2022-12-11T14:23:29;42.90;;;21.98;;
23310;SDS011;11828;51.508;18.118;2022-12-11T14:26:14;41.97;;;20.17;;
23310;SDS011;11828;51.508;18.118;2022-12-11T14:28:46;47.13;;;21.73;;
23310;SDS011;11828;51.508;18.118;2022-12-11T14:31:13;41.72;;;20.17;;
23310;SDS011;11828;51.508;18.118;2022-12-11T14:33:52;43.78;;;21.08;;
23310;SDS011;11828;51.508;18.118;2022-12-11T14:36:42;40.70;;;20.15;;
23310;SDS011;11828;51.508;18.118;2022-12-11T14:39:11;40.45;;;19.73;;
23310;SDS011;11828;51.508;18.118;2022-12-11T14:41:51;39.53;;;19.00;;
23310;SDS011;11828;51.508;18.118;2022-12-11T14:44:22;43.45;;;20.88;;
23310;SDS011;11828;51.508;18.118;2022-12-11T14:46:52;43.63;;;20.58;;
23310;SDS011;11828;51.508;18.118;2022-12-11T14:49:23;44.17;;;20.98;;
23310;SDS011;11828;51.508;18.118;2022-12-11T14:52:04;42.63;;;21.00;;
23310;SDS011;11828;51.508;18.118;2022-12-11T14:54:49;40.53;;;20.13;;
23310;SDS011;11828;51.508;18.118;2022-12-11T14:57:25;41.80;;;20.30;;
23310;SDS011;11828;51.508;18.118;2022-12-11T14:59:54;42.20;;;20.58;;
23310;SDS011;11828;51.508;18.118;2022-12-11T15:02:29;44.15;;;20.27;;
23310;SDS011;11828;51.508;18.118;2022-12-11T15:07:37;40.75;;;20.70;;
23310;SDS011;11828;51.508;18.118;2022-12-11T15:10:19;38.85;;;20.10;;
23310;SDS011;11828;51.508;18.118;2022-12-11T15:12:51;44.40;;;20.67;;
23310;SDS011;11828;51.508;18.118;2022-12-11T15:15:18;45.33;;;21.35;;
23310;SDS011;11828;51.508;18.118;2022-12-11T15:17:45;43.67;;;19.92;;
23310;SDS011;11828;51.508;18.118;2022-12-11T15:20:27;43.30;;;20.85;;
23310;SDS011;11828;51.508;18.118;2022-12-11T15:22:56;47.50;;;21.48;;
23310;SDS011;11828;51.508;18.118;2022-12-11T15:25:26;40.95;;;20.00;;
23310;SDS011;11828;51.508;18.118;2022-12-11T15:27:55;39.10;;;18.70;;
23310;SDS011;11828;51.508;18.118;2022-12-11T15:30:33;41.38;;;19.77;;
23310;SDS011;11828;51.508;18.118;2022-12-11T15:35:35;38.88;;;19.88;;
23310;SDS011;11828;51.508;18.118;2022-12-11T15:38:04;39.47;;;19.17;;
23310;SDS011;11828;51.508;18.118;2022-12-11T15:40:31;36.70;;;18.58;;
23310;SDS011;11828;51.508;18.118;2022-12-11T15:42:58;41.13;;;18.98;;
23310;SDS011;11828;51.508;18.118;2022-12-11T15:45:26;40.83;;;19.17;;
23310;SDS011;11828;51.508;18.118;2022-12-11T15:47:53;33.75;;;16.70;;
23310;SDS011;11828;51.508;18.118;2022-12-11T15:50:24;39.30;;;19.33;;
23310;SDS011;11828;51.508;18.118;2022-12-11T15:52:53;42.08;;;20.35;;
23310;SDS011;11828;51.508;18.118;2022-12-11T15:55:20;43.60;;;21.00;;
23310;SDS011;11828;51.508;18.118;2022-12-11T16:00:40;41.00;;;20.33;;
23310;SDS011;11828;51.508;18.118;2022-12-11T16:03:08;36.95;;;19.45;;
23310;SDS011;11828;51.508;18.118;2022-12-11T16:05:43;44.13;;;21.40;;
23310;SDS011;11828;51.508;18.118;2022-12-11T16:08:14;39.88;;;19.80;;
23310;SDS011;11828;51.508;18.118;2022-12-11T16:10:44;40.78;;;20.10;;
23310;SDS011;11828;51.508;18.118;2022-12-11T16:13:12;40.33;;;19.23;;
23310;SDS011;11828;51.508;18.118;2022-12-11T16:15:39;42.10;;;19.83;;
23310;SDS011;11828;51.508;18.118;2022-12-11T16:18:09;43.00;;;20.77;;
23310;SDS011;11828;51.508;18.118;2022-12-11T16:20:38;42.83;;;20.38;;
23310;SDS011;11828;51.508;18.118;2022-12-11T16:23:06;38.95;;;20.02;;
23310;SDS011;11828;51.508;18.118;2022-12-11T16:25:35;44.53;;;20.05;;